Time;durP1;ratioP1;P1;durP2;ratioP2;P2;SDS_P1;SDS_P2;PMS_P1;PMS_P2;Temp;Humidity;BMP_temperature;BMP_pressure;BME280_temperature;BME280_humidity;BME280_pressure;Samples;Min_cycle;Max_cycle;Signal;HPM_P1;HPM_P2
2022/05/22 00:00:11;;;;;;;7.00;4.93;;;22.50;71.00;;;23.02;50.40;94714.16;5050595;28;20560;-56
2022/05/22 00:02:38;;;;;;;4.83;4.40;;;22.50;71.40;;;23.02;50.26;94716.00;5048435;28;20482;-58
2022/05/22 00:05:07;;;;;;;8.27;4.40;;;22.50;71.10;;;23.01;49.87;94709.03;5044059;28;20484;-55
2022/05/22 00:07:34;;;;;;;4.50;4.20;;;22.50;71.20;;;23.00;49.94;94712.72;5040297;28;20988;-55
2022/05/22 00:10:01;;;;;;;5.60;4.43;;;22.50;71.50;;;22.99;49.90;94708.41;5046080;28;20479;-57
2022/05/22 00:12:29;;;;;;;8.50;5.00;;;22.50;71.50;;;22.97;50.15;94716.66;5058665;28;21042;-57
2022/05/22 00:14:57;;;;;;;4.00;3.70;;;22.40;71.40;;;22.95;50.42;94708.03;5044007;28;20491;-56
2022/05/22 00:17:25;;;;;;;5.57;5.10;;;22.40;72.00;;;22.92;50.78;94700.44;5045243;28;20525;-56
2022/05/22 00:19:52;;;;;;;4.20;3.90;;;22.40;72.00;;;22.90;50.13;94699.84;5048470;28;20480;-58
2022/05/22 00:22:19;;;;;;;10.43;4.53;;;22.40;71.90;;;22.89;50.37;94700.88;5052697;28;20864;-57
2022/05/22 00:24:46;;;;;;;5.90;4.90;;;22.30;72.70;;;22.88;50.55;94704.56;5057413;28;20866;-57
2022/05/22 00:27:15;;;;;;;8.50;3.97;;;22.30;72.00;;;22.87;50.64;94694.91;5043808;28;20757;-55
2022/05/22 00:29:42;;;;;;;10.37;5.00;;;22.30;72.20;;;22.86;50.18;94693.25;5046273;28;20588;-57
2022/05/22 00:32:11;;;;;;;5.43;4.47;;;22.30;72.20;;;22.85;50.33;94692.44;5051800;28;20460;-56
2022/05/22 00:34:38;;;;;;;4.20;3.80;;;22.30;72.40;;;22.84;50.70;94696.16;5056624;28;21033;-56
2022/05/22 00:37:06;;;;;;;6.60;4.00;;;22.30;72.40;;;22.82;50.69;94692.91;5054238;28;20464;-55
2022/05/22 00:39:33;;;;;;;5.33;4.40;;;22.30;72.50;;;22.82;50.37;94697.41;5046860;28;20490;-57
2022/05/22 00:42:01;;;;;;;6.20;4.17;;;22.30;72.50;;;22.80;50.51;94694.94;5046279;28;20581;-56
2022/05/22 00:44:28;;;;;;;8.23;3.97;;;22.30;72.90;;;22.79;50.94;94693.34;5056641;28;20565;-56
2022/05/22 00:46:55;;;;;;;5.17;4.23;;;22.30;72.70;;;22.78;50.54;94689.00;5056649;28;20842;-54
2022/05/22 00:49:29;;;;;;;7.57;4.07;;;22.30;72.70;;;22.75;51.01;94692.13;5051828;28;20864;-56
2022/05/22 00:51:59;;;;;;;8.77;4.20;;;22.30;73.10;;;22.73;50.54;94691.53;5050724;28;20451;-55
2022/05/22 00:54:29;;;;;;;4.30;3.60;;;22.20;73.00;;;22.70;51.09;94690.09;5054938;28;20478;-56
2022/05/22 00:57:01;;;;;;;5.23;4.13;;;22.20;73.40;;;22.67;51.17;94695.91;5056234;28;20467;-56
2022/05/22 00:59:33;;;;;;;6.70;4.60;;;22.20;73.60;;;22.61;51.03;94691.41;5056524;28;20613;-55
2022/05/22 01:02:01;;;;;;;5.10;4.03;;;22.10;73.90;;;22.57;51.39;94690.19;5047249;28;20448;-56
2022/05/22 01:04:31;;;;;;;7.70;4.40;;;22.10;73.80;;;22.49;51.29;94693.97;5042767;28;20483;-56
2022/05/22 01:06:59;;;;;;;4.80;4.40;;;22.00;74.30;;;22.46;51.50;94699.78;5047098;28;20706;-55
2022/05/22 01:09:28;;;;;;;7.73;4.73;;;22.00;74.60;;;22.45;51.71;94698.16;5050171;28;20479;-57
2022/05/22 01:11:59;;;;;;;5.50;3.87;;;21.90;74.80;;;22.43;51.67;94702.88;5052894;28;20539;-55
2022/05/22 01:14:26;;;;;;;4.73;3.83;;;21.90;75.20;;;22.42;51.81;94695.06;5045600;28;20477;-57
2022/05/22 01:16:54;;;;;;;8.03;3.70;;;21.90;75.30;;;22.40;52.04;94697.97;5051096;28;20447;-56
2022/05/22 01:19:23;;;;;;;6.73;4.73;;;21.90;75.30;;;22.37;51.90;94691.19;5056519;28;20498;-56
2022/05/22 01:21:53;;;;;;;4.93;4.53;;;21.90;75.30;;;22.36;51.65;94688.72;5058257;28;20645;-56
2022/05/22 01:24:21;;;;;;;5.43;4.03;;;21.80;75.20;;;22.35;52.04;94687.09;5049811;28;20848;-55
2022/05/22 01:26:48;;;;;;;5.90;4.30;;;21.80;75.20;;;22.32;52.19;94684.84;5045499;28;20466;-56
2022/05/22 01:29:15;;;;;;;5.40;4.90;;;21.80;75.70;;;22.31;52.13;94691.25;5050311;28;20487;-57
2022/05/22 01:31:43;;;;;;;7.53;3.83;;;21.80;75.90;;;22.32;51.95;94684.84;5055426;28;20516;-57
2022/05/22 01:34:10;;;;;;;5.00;4.00;;;21.80;76.00;;;22.31;52.11;94691.25;5050785;28;20479;-57
2022/05/22 01:36:37;;;;;;;13.53;4.53;;;21.80;76.10;;;22.30;52.12;94690.41;5049005;28;20582;-55
2022/05/22 01:39:06;;;;;;;14.50;3.93;;;21.80;75.90;;;22.30;51.73;94689.56;5049676;28;20923;-55
2022/05/22 01:41:34;;;;;;;3.37;3.20;;;21.80;75.70;;;22.29;51.97;94688.75;5053670;28;20463;-56
2022/05/22 01:44:01;;;;;;;10.80;5.07;;;21.80;75.70;;;22.29;51.98;94687.91;5053642;28;20540;-57
2022/05/22 01:46:28;;;;;;;7.37;3.90;;;21.80;75.20;;;22.29;51.66;94698.63;5059857;28;20818;-55
2022/05/22 01:48:56;;;;;;;4.43;3.60;;;21.80;75.10;;;22.28;51.33;94697.00;5043911;28;20840;-55
2022/05/22 01:51:24;;;;;;;4.87;3.30;;;21.80;74.40;;;22.27;51.10;94695.38;5050184;28;20487;-55
2022/05/22 01:53:52;;;;;;;16.53;3.70;;;21.80;73.90;;;22.26;50.77;94688.34;5049338;28;20463;-55
2022/05/22 01:56:22;;;;;;;15.33;3.17;;;21.80;73.20;;;22.25;50.30;94690.22;5056466;28;20455;-55
2022/05/22 01:58:49;;;;;;;3.40;2.90;;;21.70;73.20;;;22.25;50.12;94687.53;5052781;28;20495;-55
2022/05/22 02:01:16;;;;;;;4.33;2.80;;;21.70;71.90;;;22.24;49.95;94695.81;5048027;28;20589;-57
2022/05/22 02:03:43;;;;;;;3.30;3.03;;;21.70;71.20;;;22.24;49.66;94703.84;5049686;28;20501;-56
2022/05/22 02:06:11;;;;;;;3.93;2.70;;;21.70;70.40;;;22.23;49.10;94697.66;5043882;28;20484;-56
2022/05/22 02:08:38;;;;;;;3.50;3.30;;;21.70;70.00;;;22.20;48.79;94698.09;5059454;28;20451;-56
2022/05/22 02:11:06;;;;;;;3.77;3.40;;;21.70;69.10;;;22.20;48.65;94701.59;5051285;28;20480;-56
2022/05/22 02:13:36;;;;;;;5.57;2.50;;;21.70;68.50;;;22.21;48.10;94702.41;5046612;28;20467;-55
2022/05/22 02:16:04;;;;;;;3.00;2.40;;;21.70;67.80;;;22.19;47.94;94699.94;5045233;28;20479;-55
2022/05/22 02:18:32;;;;;;;3.20;2.93;;;21.70;67.20;;;22.17;47.96;94704.69;5053514;28;20491;-56
2022/05/22 02:20:59;;;;;;;5.00;2.97;;;21.70;66.80;;;22.15;47.93;94698.75;5058177;28;20853;-56
2022/05/22 02:23:26;;;;;;;2.83;2.53;;;21.70;66.80;;;22.16;47.44;94704.91;5043583;28;20452;-55
2022/05/22 02:25:55;;;;;;;2.73;2.53;;;21.70;66.00;;;22.15;47.04;94712.13;5045625;28;20492;-56
2022/05/22 02:28:23;;;;;;;4.23;2.70;;;21.70;65.40;;;22.17;47.10;94710.06;5050017;28;20462;-56
2022/05/22 02:30:53;;;;;;;4.70;3.07;;;21.70;65.20;;;22.15;47.16;94704.09;5044347;28;20830;-55
2022/05/22 02:33:21;;;;;;;3.00;2.70;;;21.70;64.80;;;22.15;46.90;94706.78;5051189;28;20456;-56
2022/05/22 02:35:50;;;;;;;7.00;3.10;;;21.70;64.40;;;22.14;46.74;94707.81;5044405;28;20514;-56
2022/05/22 02:38:18;;;;;;;6.40;3.00;;;21.70;64.00;;;22.13;46.69;94700.81;5052282;28;20490;-57
2022/05/22 02:40:45;;;;;;;3.30;2.70;;;21.70;63.60;;;22.13;46.44;94703.47;5040936;28;20561;-54
2022/05/22 02:43:12;;;;;;;2.53;2.03;;;21.60;62.70;;;22.12;46.09;94701.84;5049285;28;21039;-57
2022/05/22 02:45:41;;;;;;;3.57;2.73;;;21.60;62.50;;;22.12;46.00;94709.91;5054985;28;20552;-56
2022/05/22 02:48:10;;;;;;;7.20;2.80;;;21.60;61.60;;;22.12;45.50;94703.69;5046996;28;20468;-55
2022/05/22 02:50:38;;;;;;;5.20;2.57;;;21.60;61.60;;;22.11;45.27;94702.88;5044441;28;20484;-56
2022/05/22 02:53:05;;;;;;;6.80;2.30;;;21.60;61.00;;;22.11;45.28;94705.56;5052632;28;21054;-55
2022/05/22 02:55:33;;;;;;;4.80;2.63;;;21.60;60.80;;;22.11;45.06;94704.75;5056673;28;20475;-56
2022/05/22 02:58:00;;;;;;;2.80;2.27;;;21.60;60.20;;;22.10;44.76;94705.78;5043853;28;20886;-55
2022/05/22 03:00:30;;;;;;;5.30;1.90;;;21.60;59.70;;;22.10;44.67;94711.13;5045892;28;20943;-56
2022/05/22 03:02:57;;;;;;;7.73;2.67;;;21.60;59.20;;;22.09;44.24;94718.34;5045547;28;20460;-55
2022/05/22 03:05:26;;;;;;;3.77;2.43;;;21.60;58.60;;;22.09;44.14;94714.84;5052677;28;20559;-57
2022/05/22 03:07:54;;;;;;;7.80;1.97;;;21.60;58.60;;;22.09;43.84;94718.34;5057867;28;20516;-56
2022/05/22 03:10:22;;;;;;;4.13;2.30;;;21.60;58.10;;;22.07;43.60;94720.41;5036914;28;20568;-55
2022/05/22 03:12:49;;;;;;;3.37;2.10;;;21.60;57.70;;;22.06;43.57;94718.78;5044833;28;20509;-54
2022/05/22 03:15:16;;;;;;;2.90;2.10;;;21.60;57.50;;;22.08;43.48;94729.28;5040639;28;20483;-55
2022/05/22 03:17:44;;;;;;;2.27;2.03;;;21.60;57.10;;;22.07;43.07;94725.78;5049226;28;20937;-56
2022/05/22 03:20:12;;;;;;;2.40;1.83;;;21.60;57.00;;;22.07;43.03;94722.28;5057921;28;20506;-55
2022/05/22 03:22:41;;;;;;;2.23;2.13;;;21.50;56.60;;;22.06;42.90;94718.78;5043145;28;20451;-55
2022/05/22 03:25:10;;;;;;;1.87;1.70;;;21.60;56.60;;;22.07;42.55;94723.09;5042092;28;20503;-55
2022/05/22 03:27:37;;;;;;;3.47;2.10;;;21.60;55.90;;;22.07;42.58;94725.78;5050210;28;21059;-56
2022/05/22 03:30:07;;;;;;;6.67;3.73;;;21.60;55.90;;;22.08;42.31;94718.56;5054621;28;20478;-56
2022/05/22 03:32:35;;;;;;;7.00;2.10;;;21.60;55.40;;;22.08;42.29;94732.78;5049000;28;20464;-56
2022/05/22 03:35:02;;;;;;;2.37;2.17;;;21.60;55.00;;;22.09;41.76;94729.06;5040814;28;21047;-56
2022/05/22 03:37:29;;;;;;;2.10;1.73;;;21.60;54.70;;;22.10;41.63;94733.38;5045303;28;20521;-56
2022/05/22 03:39:58;;;;;;;4.07;2.13;;;21.60;54.50;;;22.12;41.67;94735.84;5052477;28;21004;-57
2022/05/22 03:42:25;;;;;;;2.80;2.30;;;21.60;54.40;;;22.12;41.65;94731.31;5048466;28;20514;-57
2022/05/22 03:44:53;;;;;;;3.70;1.80;;;21.70;54.20;;;22.14;41.00;94731.09;5039672;28;20769;-55
2022/05/22 03:47:20;;;;;;;3.93;2.63;;;21.60;53.70;;;22.14;40.76;94734.59;5047042;28;21018;-60
2022/05/22 03:49:47;;;;;;;3.20;1.63;;;21.70;53.20;;;22.16;40.73;94729.03;5045683;28;20501;-56
2022/05/22 03:52:15;;;;;;;4.93;2.07;;;21.60;53.10;;;22.17;41.09;94738.72;5055265;28;21083;-54
2022/05/22 03:54:43;;;;;;;3.70;2.27;;;21.60;53.20;;;22.18;40.94;94734.97;5045605;28;21085;-58
2022/05/22 03:57:11;;;;;;;2.87;1.70;;;21.70;53.30;;;22.19;40.63;94731.28;5037300;28;21037;-54
2022/05/22 03:59:39;;;;;;;5.13;2.17;;;21.70;52.90;;;22.19;40.56;94726.72;5042387;28;20491;-55
2022/05/22 04:02:06;;;;;;;7.73;2.40;;;21.70;52.70;;;22.23;40.25;94728.97;5047183;28;21110;-55
2022/05/22 04:04:34;;;;;;;3.60;2.03;;;21.70;52.20;;;22.25;40.44;94734.97;5054642;28;20487;-55
2022/05/22 04:07:01;;;;;;;1.70;1.53;;;21.70;52.40;;;22.27;40.14;94733.69;5057228;28;20501;-56
2022/05/22 04:09:29;;;;;;;1.77;1.67;;;21.80;52.00;;;22.30;39.86;94733.28;5043702;28;20471;-54
2022/05/22 04:11:56;;;;;;;6.33;1.83;;;21.80;51.80;;;22.32;39.80;94733.06;5052277;28;20546;-56
2022/05/22 04:14:25;;;;;;;2.50;2.30;;;21.80;51.60;;;22.35;39.85;94735.31;5050356;28;21112;-56
2022/05/22 04:16:52;;;;;;;5.73;2.40;;;21.80;51.60;;;22.37;39.89;94739.44;5055075;28;20525;-55
2022/05/22 04:19:19;;;;;;;3.13;1.77;;;21.80;51.40;;;22.38;39.56;94737.56;5057285;28;20495;-55
2022/05/22 04:21:47;;;;;;;3.73;1.40;;;21.90;51.40;;;22.40;39.55;94737.34;5039932;28;20455;-55
2022/05/22 04:27:02;;;;;;;1.93;1.80;;;21.90;50.80;;;22.43;39.45;94737.72;5055052;28;20501;-56
2022/05/22 04:29:31;;;;;;;2.73;1.73;;;21.90;50.70;;;22.45;39.17;94741.03;5055581;28;20483;-54
2022/05/22 04:31:58;;;;;;;1.83;1.73;;;21.90;50.70;;;22.46;39.57;94737.28;5051113;28;20459;-56
2022/05/22 04:34:26;;;;;;;2.60;2.27;;;22.00;50.90;;;22.47;39.65;94744.31;5049117;28;20984;-56
2022/05/22 04:36:53;;;;;;;3.83;1.90;;;22.00;51.20;;;22.48;39.49;94740.59;5053871;28;20481;-55
2022/05/22 04:39:20;;;;;;;2.03;1.87;;;22.00;51.00;;;22.51;39.66;94755.41;5057483;28;20576;-57
2022/05/22 04:41:47;;;;;;;2.33;2.13;;;22.00;50.90;;;22.51;39.14;94756.25;5061211;28;20505;-56
2022/05/22 04:44:15;;;;;;;2.33;2.00;;;22.00;50.80;;;22.53;39.55;94750.66;5048603;28;20707;-55
2022/05/22 04:46:43;;;;;;;2.10;2.00;;;22.00;50.80;;;22.53;39.24;94746.13;5049158;28;20467;-56
2022/05/22 04:49:11;;;;;;;4.70;2.17;;;22.00;50.90;;;22.54;39.64;94755.81;5049511;28;20556;-54
2022/05/22 04:51:38;;;;;;;2.27;1.90;;;22.00;50.90;;;22.56;39.45;94759.09;5052011;28;20517;-55
2022/05/22 04:54:06;;;;;;;4.90;1.70;;;22.10;51.00;;;22.59;39.28;94740.91;5054845;28;20465;-55
2022/05/22 04:56:33;;;;;;;3.57;2.17;;;22.10;51.00;;;22.62;39.53;94751.19;5048342;28;20460;-56
2022/05/22 04:59:00;;;;;;;2.57;2.47;;;22.10;51.10;;;22.66;39.34;94749.75;5052997;28;20459;-54
2022/05/22 05:01:27;;;;;;;3.10;2.30;;;22.20;51.20;;;22.71;39.07;94757.94;5052426;28;20467;-56
2022/05/22 05:03:56;;;;;;;3.93;2.50;;;22.20;51.10;;;22.76;39.61;94747.41;5054566;28;20464;-55
2022/05/22 05:06:23;;;;;;;5.93;1.93;;;22.20;51.10;;;22.82;39.40;94751.88;5054058;28;21019;-57
2022/05/22 05:08:50;;;;;;;3.20;1.80;;;22.30;51.00;;;22.88;39.18;94753.69;5045158;28;20458;-56
2022/05/22 05:11:18;;;;;;;5.10;1.93;;;22.30;51.00;;;22.94;39.45;94749.28;5052597;28;20484;-56
2022/05/22 05:13:45;;;;;;;5.20;2.07;;;22.40;51.10;;;22.99;38.81;94757.53;5046417;28;20517;-57
2022/05/22 05:16:13;;;;;;;3.23;1.60;;;22.40;51.00;;;23.04;38.86;94757.69;5056140;28;20475;-57
2022/05/22 05:18:41;;;;;;;10.83;2.27;;;22.50;50.70;;;23.06;38.72;94752.91;5048998;28;20849;-55
2022/05/22 05:21:11;;;;;;;5.53;1.60;;;22.50;50.50;;;23.07;38.91;94756.44;5051116;28;20541;-56
2022/05/22 05:23:39;;;;;;;1.70;1.60;;;22.60;50.30;;;23.10;38.75;94758.69;5054548;28;20537;-55
2022/05/22 05:26:06;;;;;;;2.10;2.00;;;22.60;50.60;;;23.11;38.90;94768.38;5057127;28;20471;-55
2022/05/22 05:28:33;;;;;;;2.73;1.30;;;22.60;50.20;;;23.11;38.50;94760.31;5059181;28;20455;-55
2022/05/22 05:31:01;;;;;;;8.27;2.03;;;22.60;50.20;;;23.12;38.70;94758.47;5050132;28;20593;-56
2022/05/22 05:33:28;;;;;;;1.47;1.20;;;22.60;50.40;;;23.12;38.67;94766.53;5053898;28;20562;-56
2022/05/22 05:35:56;;;;;;;3.13;1.60;;;22.60;50.20;;;23.14;38.37;94761.75;5055624;28;20566;-55
2022/05/22 05:38:24;;;;;;;5.23;1.60;;;22.60;50.20;;;23.17;38.30;94767.47;5058268;28;20458;-56
2022/05/22 05:40:52;;;;;;;4.20;1.60;;;22.70;50.20;;;23.20;38.29;94764.34;5058136;28;20565;-57
2022/05/22 05:43:19;;;;;;;1.33;1.20;;;22.70;50.00;;;23.23;38.56;94763.91;5053476;28;20464;-56
2022/05/22 05:45:47;;;;;;;1.90;1.47;;;22.70;50.00;;;23.27;38.06;94770.50;5048430;28;20459;-56
2022/05/22 05:48:14;;;;;;;2.03;1.80;;;22.70;49.80;;;23.31;37.92;94767.38;5054463;28;20460;-56
2022/05/22 05:50:43;;;;;;;2.03;1.83;;;22.80;49.40;;;23.35;38.41;94771.25;5053624;28;20537;-55
2022/05/22 05:53:10;;;;;;;3.63;1.53;;;22.80;49.40;;;23.37;38.48;94769.16;5046435;28;20549;-55
2022/05/22 05:55:39;;;;;;;4.43;2.13;;;22.80;49.50;;;23.41;38.02;94773.88;5050051;28;20546;-56
2022/05/22 05:58:06;;;;;;;11.13;2.30;;;22.90;49.60;;;23.43;38.02;94776.31;5054344;28;20967;-55
2022/05/22 06:00:33;;;;;;;2.40;2.20;;;22.90;49.70;;;23.46;38.02;94773.19;5046810;28;20495;-56
2022/05/22 06:03:01;;;;;;;3.53;1.70;;;22.90;49.50;;;;;;5051194;28;20467;-58
2022/05/22 06:05:28;;;;;;;4.20;2.03;;;22.90;49.80;;;23.48;38.71;94770.28;5054513;28;20808;-55
2022/05/22 06:07:55;;;;;;;7.20;1.87;;;23.00;50.20;;;23.51;38.65;94778.72;5046670;28;20459;-60
2022/05/22 06:10:23;;;;;;;7.40;1.90;;;23.00;50.30;;;23.55;38.66;94782.59;5048239;28;20566;-58
2022/05/22 06:12:51;;;;;;;6.00;1.80;;;23.00;50.30;;;23.58;38.87;94771.41;5048812;28;20468;-59
2022/05/22 06:15:19;;;;;;;2.50;1.33;;;23.00;50.10;;;23.61;38.90;94775.53;5056289;28;20491;-59
2022/05/22 06:17:47;;;;;;;4.70;1.80;;;23.10;50.00;;;23.60;38.96;94772.00;5042157;28;20456;-59
2022/05/22 06:20:18;;;;;;;5.30;1.67;;;23.10;50.30;;;23.61;38.81;94775.53;5049620;28;20581;-59
2022/05/22 06:22:45;;;;;;;3.83;1.57;;;23.10;50.30;;;23.62;38.56;94778.00;5046594;28;20460;-59
2022/05/22 06:25:14;;;;;;;5.47;2.17;;;23.10;50.50;;;23.66;38.67;94772.19;5045771;28;20491;-57
2022/05/22 06:27:43;;;;;;;5.37;1.67;;;23.10;50.60;;;23.69;38.54;94771.72;5046814;28;20456;-59
2022/05/22 06:30:13;;;;;;;5.10;1.63;;;23.10;50.80;;;23.72;38.40;94776.63;5047989;28;20475;-56
2022/05/22 06:32:41;;;;;;;2.13;1.73;;;23.10;50.30;;;23.74;39.14;94782.59;5047640;28;20450;-58
2022/05/22 06:35:09;;;;;;;3.60;1.90;;;23.20;50.40;;;23.75;38.95;94781.53;5048078;28;20483;-59
2022/05/22 06:37:37;;;;;;;2.07;1.83;;;23.20;50.50;;;23.78;38.33;94778.41;5051713;28;20466;-56
2022/05/22 06:40:05;;;;;;;1.97;1.87;;;23.20;50.50;;;23.82;38.91;94771.56;5049118;28;21073;-59
2022/05/22 06:42:34;;;;;;;1.87;1.60;;;23.30;50.50;;;23.90;38.43;94767.78;5049361;28;20436;-55
2022/05/22 06:45:06;;;;;;;4.23;1.90;;;23.30;50.60;;;24.01;38.75;94764.31;5054322;28;20558;-59
2022/05/22 06:47:35;;;;;;;3.37;1.93;;;23.40;50.50;;;24.12;38.52;94770.78;5052545;28;20455;-61
2022/05/22 06:50:04;;;;;;;1.87;1.53;;;23.50;50.60;;;24.22;39.09;94771.09;5053411;28;20896;-61
2022/05/22 06:52:31;;;;;;;8.07;2.30;;;23.60;50.60;;;24.33;38.32;94773.00;5044622;28;20970;-60
2022/05/22 06:54:58;;;;;;;43.07;12.07;;;23.70;50.60;;;24.45;38.71;94766.84;5049080;28;20483;-60
2022/05/22 06:57:26;;;;;;;22.33;6.60;;;23.90;50.90;;;24.62;38.34;94765.16;5048101;28;21003;-60
2022/05/22 06:59:56;;;;;;;23.73;3.33;;;24.00;50.90;;;24.81;39.15;94763.22;5052606;28;20490;-58
2022/05/22 07:02:24;;;;;;;9.77;2.77;;;24.20;50.90;;;25.00;38.77;94763.97;5049313;28;21061;-58
2022/05/22 07:04:52;;;;;;;24.27;3.57;;;24.40;50.90;;;25.18;38.74;94759.50;5030935;28;20483;-57
2022/05/22 07:07:20;;;;;;;9.60;2.37;;;24.50;50.60;;;25.28;38.65;94751.66;5046564;28;20566;-59
2022/05/22 07:09:47;;;;;;;5.13;2.60;;;24.70;50.40;;;25.38;37.82;94757.31;5050546;28;21007;-59
2022/05/22 07:12:15;;;;;;;3.23;2.10;;;24.80;50.00;;;25.50;38.19;94756.47;5050135;28;20470;-57
2022/05/22 07:14:43;;;;;;;4.77;2.90;;;24.90;50.10;;;25.60;37.87;94751.31;5059583;28;20464;-58
2022/05/22 07:17:12;;;;;;;15.23;2.53;;;25.00;49.90;;;25.70;37.59;94753.41;5042887;28;21023;-56
2022/05/22 07:19:39;;;;;;;5.37;1.80;;;25.10;49.80;;;25.73;37.39;94753.75;5055069;28;21069;-57
2022/05/22 07:22:08;;;;;;;2.67;1.73;;;25.10;49.50;;;25.75;37.63;94756.22;5057120;28;20451;-57
2022/05/22 07:24:35;;;;;;;5.20;1.93;;;25.20;49.20;;;25.76;37.86;94758.69;5054586;28;21040;-56
2022/05/22 07:27:03;;;;;;;4.00;1.80;;;25.20;49.10;;;25.77;37.71;94759.47;5053777;28;20451;-55
2022/05/22 07:29:30;;;;;;;4.23;1.90;;;25.20;49.20;;;25.78;37.25;94761.13;5049434;28;20533;-57
2022/05/22 07:31:58;;;;;;;11.77;1.87;;;25.20;49.10;;;25.81;37.64;94763.34;5052126;28;20528;-56
2022/05/22 07:34:25;;;;;;;2.83;2.20;;;25.20;49.00;;;25.85;37.61;94769.06;5055296;28;20479;-57
2022/05/22 07:36:56;;;;;;;1.70;1.60;;;25.30;49.00;;;25.87;37.87;94769.66;5058990;28;20459;-56
2022/05/22 07:39:25;;;;;;;13.00;1.67;;;25.30;49.20;;;25.88;37.55;94761.31;5042009;28;20478;-56
2022/05/22 07:41:52;;;;;;;3.27;1.70;;;25.30;49.60;;;25.90;37.47;94763.78;5050257;28;21082;-57
2022/05/22 07:44:20;;;;;;;3.40;2.10;;;25.30;49.20;;;25.90;37.18;94755.69;5056736;28;20465;-57
2022/05/22 07:46:47;;;;;;;6.17;2.13;;;25.30;48.90;;;25.91;37.44;94754.66;5062286;28;20462;-56
2022/05/22 07:50:16;;;;;;;3.00;1.90;;;25.40;49.10;;;25.95;37.58;94755.81;5059010;28;21018;-55
2022/05/22 07:52:04;;;;;;;4.70;2.47;;;25.30;48.90;;;25.95;37.49;94747.72;5049102;28;20431;-56
2022/05/22 07:54:35;;;;;;;4.80;2.07;;;25.40;48.90;;;25.94;37.37;94751.47;5056616;28;20548;-57
2022/05/22 07:57:02;;;;;;;9.93;2.57;;;25.40;49.10;;;25.90;37.25;94748.44;5057286;28;20966;-56
2022/05/22 07:59:30;;;;;;;4.30;2.37;;;25.40;49.10;;;25.87;37.94;94743.53;5064966;28;20466;-59
2022/05/22 08:01:57;;;;;;;3.97;2.70;;;25.30;49.20;;;25.83;37.33;94730.78;5054120;28;20487;-58
2022/05/22 08:04:25;;;;;;;4.93;2.70;;;25.30;49.20;;;25.79;37.39;94726.91;5052725;28;20918;-55
2022/05/22 08:06:52;;;;;;;3.87;3.23;;;25.20;49.00;;;25.72;37.73;94719.78;5057426;28;20749;-61
2022/05/22 08:09:19;;;;;;;6.73;2.00;;;25.20;49.20;;;25.67;37.75;94718.84;5058441;28;20471;-59
2022/05/22 08:11:48;;;;;;;5.53;2.17;;;25.10;49.20;;;25.61;37.48;94715.25;5062956;28;20456;-56
2022/05/22 08:14:16;;;;;;;5.30;2.67;;;25.10;49.20;;;25.55;38.09;94719.69;5056144;28;20467;-59
2022/05/22 08:16:43;;;;;;;4.70;2.00;;;25.00;49.10;;;25.49;37.94;94717.97;5048423;28;20538;-58
2022/05/22 08:19:11;;;;;;;5.67;2.70;;;25.00;49.30;;;25.43;37.60;94716.22;5058007;28;20490;-60
2022/05/22 08:21:38;;;;;;;12.20;2.83;;;24.90;49.50;;;25.37;37.76;94709.88;5056955;28;20497;-59
2022/05/22 08:24:06;;;;;;;3.67;2.20;;;24.80;49.70;;;25.37;37.84;94701.81;5058635;28;20457;-60
2022/05/22 08:26:33;;;;;;;2.47;2.27;;;24.80;49.80;;;25.36;37.71;94702.88;5050518;28;20446;-62
2022/05/22 08:29:02;;;;;;;4.80;2.60;;;24.80;49.80;;;25.35;38.22;94701.25;5054922;28;20445;-57
2022/05/22 08:31:29;;;;;;;2.53;2.33;;;24.80;50.00;;;25.36;38.23;94704.75;5055090;28;20515;-57
2022/05/22 08:33:57;;;;;;;3.53;2.20;;;24.80;50.30;;;25.38;38.69;94697.25;5061374;28;20512;-58
2022/05/22 08:36:24;;;;;;;6.07;2.27;;;24.80;50.50;;;25.40;39.16;94704.03;5061247;28;20687;-57
2022/05/22 08:38:52;;;;;;;7.00;2.07;;;24.80;50.80;;;25.43;39.04;94697.38;5050844;28;20470;-55
2022/05/22 08:41:21;;;;;;;6.40;2.37;;;24.90;50.90;;;25.45;39.34;94697.13;5055099;28;21017;-56
2022/05/22 08:43:51;;;;;;;3.43;2.73;;;24.90;50.90;;;25.47;38.67;94705.78;5058535;28;20834;-56
2022/05/22 08:46:24;;;;;;;14.03;2.20;;;24.90;51.10;;;25.47;39.31;94701.22;5064011;28;20523;-57
2022/05/22 08:48:56;;;;;;;3.00;2.00;;;24.90;51.20;;;25.46;39.67;94704.16;5048952;28;20518;-57
2022/05/22 08:51:29;;;;;;;13.43;2.83;;;24.90;51.30;;;25.44;39.08;94704.41;5051320;28;20456;-56
2022/05/22 08:53:58;;;;;;;2.13;1.90;;;24.90;51.30;;;25.38;39.28;94708.03;5054856;28;20971;-56
2022/05/22 08:59:20;;;;;;;11.20;2.67;;;24.80;51.40;;;25.23;39.72;94703.09;5062899;28;20450;-55
2022/05/22 09:01:52;;;;;;;4.20;2.43;;;24.70;51.40;;;25.13;39.95;94708.25;5049188;28;20568;-56
2022/05/22 09:04:35;;;;;;;3.93;2.47;;;24.60;51.50;;;25.02;39.61;94709.91;5048483;28;20474;-57
2022/05/22 09:07:17;;;;;;;2.13;1.67;;;24.50;51.80;;;24.92;40.21;94706.97;5055675;28;20918;-55
2022/05/22 09:09:45;;;;;;;2.90;2.33;;;24.40;51.90;;;24.84;39.82;94706.25;5059218;28;20494;-57
2022/05/22 09:12:40;;;;;;;3.47;2.43;;;24.40;52.20;;;24.78;39.83;94706.38;5056589;28;20533;-56
2022/05/22 09:15:11;;;;;;;4.50;2.40;;;24.30;52.40;;;24.73;40.66;94698.19;5031694;28;20585;-56
2022/05/22 09:17:43;;;;;;;9.10;1.83;;;24.20;52.50;;;24.69;40.37;94697.81;5056124;28;20449;-57
2022/05/22 09:20:18;;;;;;;1.90;1.80;;;24.20;52.60;;;24.66;41.03;94706.34;5059011;28;20524;-56
2022/05/22 09:23:04;;;;;;;5.17;2.17;;;24.10;52.60;;;24.63;41.35;94702.28;5058726;28;20504;-58
2022/05/22 09:25:39;;;;;;;2.43;1.93;;;24.10;53.00;;;24.62;41.34;94692.56;5048815;28;20475;-55
2022/05/22 09:28:11;;;;;;;3.10;2.37;;;24.10;53.30;;;24.62;41.44;94695.25;5049191;28;20449;-57
2022/05/22 09:30:43;;;;;;;4.87;2.60;;;24.10;53.30;;;24.63;40.98;94696.91;5057626;28;20528;-57
2022/05/22 09:33:18;;;;;;;4.13;2.10;;;24.10;53.60;;;24.64;41.61;94687.75;5060352;28;20505;-58
2022/05/22 09:35:57;;;;;;;4.17;2.47;;;24.10;53.80;;;24.71;40.95;94690.34;5040184;28;20474;-57
2022/05/22 09:38:42;;;;;;;6.73;2.80;;;24.20;53.80;;;24.82;41.87;94689.53;5050592;28;20534;-59
2022/05/22 09:41:18;;;;;;;3.23;2.20;;;24.30;54.00;;;25.10;41.71;94685.31;5051673;28;21019;-56
2022/05/22 09:44:29;;;;;;;5.40;2.07;;;24.50;54.30;;;25.43;41.07;94677.72;5058515;28;21076;-57
2022/05/22 09:47:28;;;;;;;3.00;1.87;;;24.70;54.10;;;25.83;40.91;94671.50;4988493;28;20493;-56
2022/05/22 09:50:12;;;;;;;4.13;1.93;;;25.10;53.30;;;26.19;40.00;94664.09;5050267;28;21059;-58
2022/05/22 09:52:46;;;;;;;6.77;4.20;;;25.50;52.70;;;26.51;39.31;94656.28;5049767;28;20452;-58
2022/05/22 09:55:28;;;;;;;3.50;2.00;;;25.80;51.80;;;26.82;38.34;94649.50;5057760;28;20455;-57
2022/05/22 09:58:30;;;;;;;5.90;2.73;;;26.10;51.20;;;27.10;37.68;94638.84;5055682;28;20454;-58
2022/05/22 10:01:00;;;;;;;4.07;2.50;;;26.40;50.40;;;27.30;37.60;94652.59;5049009;28;20517;-57
2022/05/22 10:03:37;;;;;;;2.33;2.03;;;26.60;49.60;;;27.43;36.95;94646.03;5049892;28;20466;-57
2022/05/22 10:06:11;;;;;;;5.00;2.30;;;26.80;48.80;;;27.52;36.84;94654.53;5054926;28;21032;-57
2022/05/22 10:08:50;;;;;;;4.03;2.03;;;26.90;48.60;;;27.62;36.34;94643.03;5055396;28;20450;-57
2022/05/22 10:11:21;;;;;;;1.73;1.63;;;27.00;47.50;;;27.64;36.50;94643.59;5052692;28;20455;-57
2022/05/22 10:14:05;;;;;;;8.20;1.90;;;27.10;47.70;;;27.69;35.90;94630.94;5052057;28;20442;-57
2022/05/22 10:16:41;;;;;;;3.73;1.90;;;27.10;47.50;;;27.68;35.93;94626.59;5049114;28;20448;-57
2022/05/22 10:19:23;;;;;;;2.90;2.20;;;27.10;47.10;;;27.64;35.96;94632.81;5056199;28;20452;-57
2022/05/22 10:21:56;;;;;;;7.00;1.93;;;27.10;47.20;;;27.63;35.98;94628.44;5056859;28;21016;-58
2022/05/22 10:24:46;;;;;;;4.13;1.70;;;27.10;47.40;;;27.61;36.46;94631.41;5046024;28;20483;-58
2022/05/22 10:27:39;;;;;;;5.70;2.10;;;27.00;47.40;;;27.61;35.66;94625.19;5051509;28;20808;-57
2022/05/22 10:30:09;;;;;;;3.37;2.07;;;27.00;47.20;;;27.58;36.10;94623.00;5053774;28;20467;-56
2022/05/22 10:32:41;;;;;;;4.60;1.83;;;27.00;47.30;;;27.54;36.60;94619.97;5057689;28;20463;-56
2022/05/22 10:35:11;;;;;;;2.60;2.23;;;27.00;47.40;;;27.52;36.69;94611.31;5041590;28;20465;-57